Time;durP1;ratioP1;P1;durP2;ratioP2;P2;SDS_P1;SDS_P2;PMS_P1;PMS_P2;Temp;Humidity;BMP_temperature;BMP_pressure;BME280_temperature;BME280_humidity;BME280_pressure;Samples;Min_cycle;Max_cycle;Signal;HPM_P1;HPM_P2
2022/02/20 00:00:40;;;;;;;0.70;0.50;;;9.40;99.90;;;;;;5031838;28;20691;-72
2022/02/20 00:03:05;;;;;;;0.70;0.60;;;9.50;99.90;;;;;;5031890;28;20170;-71
2022/02/20 00:05:31;;;;;;;0.70;0.50;;;9.50;99.90;;;;;;5031888;28;20178;-72
2022/02/20 00:07:56;;;;;;;0.80;0.70;;;9.50;99.90;;;;;;5031432;28;20163;-72
2022/02/20 00:10:22;;;;;;;0.87;0.73;;;9.60;99.90;;;;;;5030371;28;20202;-73
2022/02/20 00:12:48;;;;;;;3.43;2.30;;;9.60;99.90;;;;;;5031895;28;20191;-72
2022/02/20 00:15:13;;;;;;;0.80;0.60;;;9.60;99.90;;;;;;5031719;28;20249;-72
2022/02/20 00:17:39;;;;;;;0.70;0.50;;;9.60;99.90;;;;;;5031642;28;20172;-72
2022/02/20 00:20:05;;;;;;;0.70;0.50;;;9.70;99.90;;;;;;5030253;28;20195;-72
2022/02/20 00:22:31;;;;;;;0.70;0.50;;;9.70;99.90;;;;;;5031054;28;20187;-72
2022/02/20 00:24:57;;;;;;;1.00;0.90;;;9.70;99.90;;;;;;5035722;28;20402;-72
2022/02/20 00:27:23;;;;;;;0.70;0.60;;;9.70;99.90;;;;;;5035221;28;20255;-71
2022/02/20 00:29:49;;;;;;;0.70;0.50;;;9.70;99.90;;;;;;5035788;28;20605;-71
2022/02/20 00:32:15;;;;;;;1.90;1.80;;;9.70;99.90;;;;;;5035542;28;20510;-71
2022/02/20 00:34:40;;;;;;;1.63;1.53;;;9.70;99.90;;;;;;5035350;28;20421;-71
2022/02/20 00:37:07;;;;;;;0.70;0.50;;;9.70;99.90;;;;;;5035013;28;20171;-71
2022/02/20 00:39:32;;;;;;;0.70;0.50;;;9.70;99.90;;;;;;5035022;28;20710;-71
2022/02/20 00:41:59;;;;;;;0.80;0.80;;;9.60;99.90;;;;;;5035302;28;20517;-71
2022/02/20 00:44:24;;;;;;;4.30;0.80;;;9.50;99.90;;;;;;5035283;28;20168;-71
2022/02/20 00:46:50;;;;;;;0.70;0.50;;;9.40;99.90;;;;;;5034931;28;20414;-71
2022/02/20 00:49:15;;;;;;;0.70;0.50;;;9.40;99.90;;;;;;5050217;28;20547;-71
2022/02/20 00:51:41;;;;;;;0.80;0.60;;;9.30;99.90;;;;;;5055114;28;20667;-71
2022/02/20 00:54:10;;;;;;;0.70;0.50;;;9.20;99.90;;;;;;5054755;28;20186;-71
2022/02/20 00:56:37;;;;;;;0.70;0.50;;;9.00;99.90;;;;;;5039539;28;20182;-71
2022/02/20 00:59:06;;;;;;;1.10;0.80;;;9.00;99.90;;;;;;5034934;28;20422;-71
2022/02/20 01:01:32;;;;;;;0.70;0.50;;;8.90;99.90;;;;;;5037357;28;20491;-71
2022/02/20 01:03:59;;;;;;;0.70;0.50;;;8.70;99.90;;;;;;5035971;28;20821;-71
2022/02/20 01:06:25;;;;;;;0.70;0.50;;;8.60;99.90;;;;;;5034540;28;20414;-70
2022/02/20 01:08:51;;;;;;;0.70;0.50;;;8.50;99.90;;;;;;5034899;28;20766;-71
2022/02/20 01:11:17;;;;;;;0.70;0.50;;;8.50;99.90;;;;;;5033274;28;20434;-70
2022/02/20 01:13:44;;;;;;;0.70;0.50;;;8.40;99.90;;;;;;5034777;28;20444;-70
2022/02/20 01:16:10;;;;;;;0.70;0.50;;;8.30;99.90;;;;;;5035423;28;20172;-71
2022/02/20 01:18:35;;;;;;;0.80;0.70;;;8.20;99.90;;;;;;5034633;28;20406;-70
2022/02/20 01:21:01;;;;;;;1.13;0.60;;;8.10;99.90;;;;;;5042990;28;20464;-70
2022/02/20 01:23:27;;;;;;;0.70;0.50;;;8.00;99.90;;;;;;5048836;28;20275;-70
2022/02/20 01:25:52;;;;;;;0.70;0.50;;;8.00;99.90;;;;;;5041467;28;20171;-70
2022/02/20 01:28:18;;;;;;;0.70;0.50;;;7.90;99.90;;;;;;5054348;28;20170;-71
2022/02/20 01:30:44;;;;;;;0.70;0.60;;;7.80;99.90;;;;;;5039072;28;20205;-70
2022/02/20 01:33:09;;;;;;;0.70;0.50;;;7.80;99.90;;;;;;5034631;28;20175;-70
2022/02/20 01:35:35;;;;;;;0.70;0.50;;;7.70;99.90;;;;;;5033746;28;20191;-70
2022/02/20 01:38:00;;;;;;;0.70;0.50;;;7.60;99.90;;;;;;5033975;28;20179;-71
2022/02/20 01:40:30;;;;;;;1.47;0.70;;;7.60;99.90;;;;;;5039292;28;20199;-71
2022/02/20 01:42:58;;;;;;;0.70;0.50;;;7.50;99.90;;;;;;5047223;28;20178;-70
2022/02/20 01:45:24;;;;;;;2.30;0.70;;;7.40;99.90;;;;;;5034062;28;20426;-70
2022/02/20 01:47:50;;;;;;;0.70;0.50;;;7.40;99.90;;;;;;5032712;28;20410;-70
2022/02/20 01:50:16;;;;;;;0.70;0.50;;;7.40;99.90;;;;;;5050091;28;20800;-70
2022/02/20 01:52:42;;;;;;;0.70;0.50;;;7.30;99.90;;;;;;5033903;28;20540;-70
2022/02/20 01:55:09;;;;;;;0.70;0.50;;;7.20;99.90;;;;;;5033794;28;20461;-70
2022/02/20 01:57:39;;;;;;;0.80;0.70;;;7.20;99.90;;;;;;5033561;28;20806;-70
2022/02/20 02:00:12;;;;;;;0.70;0.47;;;7.20;99.90;;;;;;5034006;28;20486;-70
2022/02/20 02:02:38;;;;;;;0.70;0.50;;;7.10;99.90;;;;;;5034040;28;20406;-70
2022/02/20 02:05:04;;;;;;;0.90;0.63;;;7.10;99.90;;;;;;5033583;28;20415;-70
2022/02/20 02:07:30;;;;;;;0.70;0.50;;;7.00;99.90;;;;;;5033587;28;20409;-70
2022/02/20 02:09:56;;;;;;;0.70;0.50;;;7.00;99.90;;;;;;5032339;28;20418;-70
2022/02/20 02:12:22;;;;;;;0.70;0.70;;;7.00;99.90;;;;;;5033460;28;20195;-70
2022/02/20 02:15:00;;;;;;;0.90;0.70;;;6.90;99.90;;;;;;5034260;28;20780;-72
2022/02/20 02:17:26;;;;;;;2.20;2.10;;;6.90;99.90;;;;;;5032737;28;20414;-72
2022/02/20 02:19:52;;;;;;;0.70;0.50;;;6.80;99.90;;;;;;5033051;28;20450;-71
2022/02/20 02:22:22;;;;;;;0.70;0.50;;;6.80;99.90;;;;;;5033616;28;20207;-72
2022/02/20 02:24:49;;;;;;;0.70;0.50;;;6.70;99.90;;;;;;5033020;28;20453;-71
2022/02/20 02:27:15;;;;;;;0.70;0.50;;;6.60;99.90;;;;;;5033075;28;20485;-70
2022/02/20 02:29:43;;;;;;;0.70;0.60;;;6.60;99.90;;;;;;5033231;28;20923;-70
2022/02/20 02:32:09;;;;;;;0.70;0.50;;;6.60;99.90;;;;;;5033207;28;20923;-70
2022/02/20 02:34:35;;;;;;;0.70;0.50;;;6.50;99.90;;;;;;5032820;28;20426;-70
2022/02/20 02:37:01;;;;;;;0.70;0.50;;;6.50;99.90;;;;;;5032798;28;20418;-70
2022/02/20 02:39:27;;;;;;;0.70;0.50;;;6.40;99.90;;;;;;5032849;28;20266;-70
2022/02/20 02:41:52;;;;;;;0.70;0.40;;;6.40;99.90;;;;;;5033239;28;20459;-71
2022/02/20 02:44:18;;;;;;;1.30;1.20;;;6.30;99.90;;;;;;5033193;28;20168;-72
2022/02/20 02:46:44;;;;;;;0.70;0.50;;;6.30;99.90;;;;;;5031511;28;20172;-71
2022/02/20 02:49:09;;;;;;;0.70;0.50;;;6.20;99.90;;;;;;5033085;28;20640;-71
2022/02/20 02:51:36;;;;;;;0.70;0.50;;;6.20;99.90;;;;;;5032770;28;20198;-71
2022/02/20 02:54:07;;;;;;;0.70;0.50;;;6.20;99.90;;;;;;5033356;28;20516;-72
2022/02/20 02:56:33;;;;;;;0.70;0.50;;;6.10;99.90;;;;;;5033659;28;20411;-72
2022/02/20 02:58:58;;;;;;;0.70;0.50;;;6.10;99.90;;;;;;5033892;28;20411;-71
2022/02/20 03:01:24;;;;;;;1.00;0.83;;;6.00;99.90;;;;;;5032871;28;20446;-72
2022/02/20 03:03:50;;;;;;;0.70;0.50;;;6.00;99.90;;;;;;5032661;28;20681;-72
2022/02/20 03:06:16;;;;;;;0.80;0.70;;;5.90;99.90;;;;;;5032386;28;20198;-71
2022/02/20 03:08:42;;;;;;;0.70;0.50;;;5.90;99.90;;;;;;5032417;28;20176;-70
2022/02/20 03:11:08;;;;;;;0.70;0.50;;;5.90;99.90;;;;;;5032428;28;20434;-70
2022/02/20 03:13:35;;;;;;;0.70;0.50;;;5.80;99.90;;;;;;5032433;28;20441;-70
2022/02/20 03:16:02;;;;;;;1.10;0.60;;;5.70;99.90;;;;;;5032973;28;20873;-71
2022/02/20 03:18:30;;;;;;;0.70;0.50;;;5.70;99.90;;;;;;5033034;28;20453;-71
2022/02/20 03:21:01;;;;;;;7.73;0.90;;;5.70;99.90;;;;;;5031416;28;20488;-72
2022/02/20 03:23:27;;;;;;;0.70;0.50;;;5.60;99.90;;;;;;5031251;28;20473;-72
2022/02/20 03:25:53;;;;;;;0.90;0.60;;;5.60;99.90;;;;;;5032585;28;20463;-72
2022/02/20 03:28:19;;;;;;;0.70;0.50;;;5.50;99.90;;;;;;5032000;28;20497;-72
2022/02/20 03:30:44;;;;;;;0.70;0.50;;;5.50;99.90;;;;;;5030775;28;20202;-70
2022/02/20 03:33:10;;;;;;;1.23;1.13;;;5.50;99.90;;;;;;5031967;28;20414;-70
2022/02/20 03:35:36;;;;;;;0.70;0.50;;;5.40;99.90;;;;;;5032048;28;20171;-70
2022/02/20 03:38:02;;;;;;;0.70;0.50;;;5.40;99.90;;;;;;5030661;28;20935;-70
2022/02/20 03:40:27;;;;;;;0.70;0.50;;;5.40;99.90;;;;;;5032019;28;20450;-71
2022/02/20 03:42:53;;;;;;;0.70;0.50;;;5.30;99.90;;;;;;5030689;28;20173;-70
2022/02/20 03:45:19;;;;;;;0.80;0.67;;;5.30;99.90;;;;;;5031872;28;20234;-71
2022/02/20 03:47:45;;;;;;;0.70;0.47;;;5.30;99.90;;;;;;5031830;28;20524;-71
2022/02/20 03:50:11;;;;;;;0.70;0.43;;;5.20;99.90;;;;;;5031893;28;20430;-70
2022/02/20 03:52:37;;;;;;;1.10;1.00;;;5.20;99.90;;;;;;5032195;28;20580;-70
2022/02/20 03:55:05;;;;;;;0.70;0.47;;;5.20;99.90;;;;;;5032315;28;20796;-71
2022/02/20 03:57:32;;;;;;;0.70;0.50;;;5.10;99.90;;;;;;5032221;28;20429;-72
2022/02/20 03:59:59;;;;;;;0.70;0.50;;;5.10;99.90;;;;;;5032972;28;20452;-71
2022/02/20 04:02:27;;;;;;;0.70;0.50;;;5.10;99.90;;;;;;5032259;28;20438;-70
2022/02/20 04:04:54;;;;;;;3.57;1.23;;;5.10;99.90;;;;;;5031938;28;20409;-71
2022/02/20 04:07:19;;;;;;;1.13;1.03;;;5.10;99.90;;;;;;5031681;28;20934;-70
2022/02/20 04:09:45;;;;;;;0.80;0.50;;;5.10;99.90;;;;;;5030629;28;20406;-70
2022/02/20 04:12:10;;;;;;;0.70;0.50;;;5.10;99.90;;;;;;5031118;28;20195;-70
2022/02/20 04:14:36;;;;;;;0.70;0.50;;;5.10;99.90;;;;;;5031890;28;20745;-70
2022/02/20 04:17:01;;;;;;;0.70;0.40;;;5.00;99.90;;;;;;5031463;28;20567;-71
2022/02/20 04:19:27;;;;;;;0.70;0.50;;;5.00;99.90;;;;;;5031627;28;20202;-71
2022/02/20 04:21:52;;;;;;;0.70;0.50;;;5.00;99.90;;;;;;5031423;28;20187;-70
2022/02/20 04:24:18;;;;;;;0.70;0.50;;;5.00;99.90;;;;;;5031619;28;20847;-70
2022/02/20 04:26:44;;;;;;;0.87;0.60;;;5.00;99.90;;;;;;5031271;28;20182;-70
2022/02/20 04:29:09;;;;;;;0.70;0.50;;;5.00;99.90;;;;;;5031177;28;20210;-72
2022/02/20 04:31:36;;;;;;;0.83;0.83;;;5.00;99.90;;;;;;5032717;28;20176;-71
2022/02/20 04:34:02;;;;;;;0.70;0.50;;;5.00;99.90;;;;;;5032437;28;20250;-70
2022/02/20 04:36:28;;;;;;;0.70;0.40;;;5.10;99.90;;;;;;5031427;28;20414;-70
2022/02/20 04:38:54;;;;;;;0.70;0.50;;;5.10;99.90;;;;;;5031665;28;20484;-71
2022/02/20 04:41:21;;;;;;;0.70;0.50;;;5.10;99.90;;;;;;5032036;28;20226;-71
2022/02/20 04:43:48;;;;;;;0.70;0.50;;;5.10;99.90;;;;;;5032415;28;20278;-72
2022/02/20 04:46:14;;;;;;;0.70;0.50;;;5.00;99.90;;;;;;5032548;28;20942;-72
2022/02/20 04:48:39;;;;;;;1.40;1.27;;;5.00;99.90;;;;;;5032257;28;20436;-71
2022/02/20 04:51:05;;;;;;;0.70;0.50;;;5.00;99.90;;;;;;5031185;28;20188;-72
2022/02/20 04:53:30;;;;;;;0.70;0.50;;;5.00;99.90;;;;;;5030078;28;20207;-71
2022/02/20 04:55:56;;;;;;;14.63;1.93;;;5.00;99.90;;;;;;5031501;28;20634;-71
2022/02/20 04:58:22;;;;;;;0.70;0.50;;;5.00;99.90;;;;;;5031183;28;20582;-71
2022/02/20 05:00:47;;;;;;;0.70;0.50;;;5.00;99.90;;;;;;5031253;28;20541;-71
2022/02/20 05:03:13;;;;;;;0.80;0.73;;;5.00;99.90;;;;;;5031460;28;20171;-72
2022/02/20 05:05:39;;;;;;;0.70;0.50;;;5.00;99.90;;;;;;5030100;28;20648;-71
2022/02/20 05:08:05;;;;;;;0.70;0.43;;;5.10;99.90;;;;;;5030865;28;20656;-71
2022/02/20 05:10:31;;;;;;;0.70;0.40;;;5.20;99.90;;;;;;5033553;28;20218;-71
2022/02/20 05:12:56;;;;;;;0.70;0.50;;;5.20;99.90;;;;;;5034943;28;20408;-71
2022/02/20 05:15:22;;;;;;;0.70;0.50;;;5.20;99.90;;;;;;5033671;28;20670;-70
2022/02/20 05:17:47;;;;;;;0.70;0.50;;;5.30;99.90;;;;;;5034641;28;20174;-71
2022/02/20 05:20:13;;;;;;;1.73;1.63;;;5.30;99.90;;;;;;5034299;28;20188;-71
2022/02/20 05:22:38;;;;;;;0.70;0.50;;;5.30;99.90;;;;;;5034364;28;20241;-71
2022/02/20 05:25:04;;;;;;;0.70;0.50;;;5.40;99.90;;;;;;5035369;28;20170;-72
2022/02/20 05:27:30;;;;;;;0.70;0.50;;;5.40;99.90;;;;;;5034218;28;20164;-70
2022/02/20 05:29:56;;;;;;;0.70;0.50;;;5.50;99.90;;;;;;5034408;28;20756;-70
2022/02/20 05:32:24;;;;;;;0.70;0.43;;;5.50;99.90;;;;;;5034412;28;20223;-72
2022/02/20 05:34:53;;;;;;;0.70;0.50;;;5.60;99.90;;;;;;5034899;28;20936;-72
2022/02/20 05:37:19;;;;;;;0.70;0.50;;;5.70;99.90;;;;;;5033191;28;20496;-72
2022/02/20 05:39:45;;;;;;;0.70;0.50;;;5.70;99.90;;;;;;5034426;28;20804;-70
2022/02/20 05:42:11;;;;;;;0.70;0.50;;;5.80;99.90;;;;;;5033937;28;20481;-70
2022/02/20 05:44:37;;;;;;;0.70;0.50;;;5.80;99.90;;;;;;5034071;28;20457;-71
2022/02/20 05:47:03;;;;;;;0.70;0.40;;;5.90;99.90;;;;;;5034232;28;20163;-71
2022/02/20 05:49:29;;;;;;;0.70;0.50;;;5.90;99.90;;;;;;5033291;28;20172;-70
2022/02/20 05:51:54;;;;;;;0.70;0.40;;;6.00;99.90;;;;;;5034229;28;21143;-71
2022/02/20 05:54:20;;;;;;;0.70;0.50;;;6.00;99.90;;;;;;5034312;28;20608;-70
2022/02/20 05:56:46;;;;;;;0.70;0.50;;;6.00;99.90;;;;;;5033944;28;20254;-70
2022/02/20 05:59:12;;;;;;;0.70;0.50;;;6.10;99.90;;;;;;5033610;28;20255;-70
2022/02/20 06:01:38;;;;;;;0.70;0.50;;;6.20;99.90;;;;;;5033682;28;20269;-72
2022/02/20 06:04:04;;;;;;;0.70;0.50;;;6.20;99.90;;;;;;5033992;28;20442;-71
2022/02/20 06:06:32;;;;;;;0.70;0.50;;;6.30;99.90;;;;;;5034485;28;20171;-71
2022/02/20 06:09:01;;;;;;;0.70;0.50;;;6.40;99.90;;;;;;5033811;28;20411;-71
2022/02/20 06:11:27;;;;;;;1.53;1.27;;;6.40;99.90;;;;;;5033844;28;20505;-70
2022/02/20 06:13:53;;;;;;;0.70;0.50;;;6.50;99.90;;;;;;5033550;28;20418;-71
2022/02/20 06:16:19;;;;;;;0.70;0.50;;;6.60;99.90;;;;;;5033626;28;20841;-72
2022/02/20 06:18:47;;;;;;;0.70;0.50;;;6.80;99.90;;;;;;5033510;28;20183;-70
2022/02/20 06:21:14;;;;;;;0.93;0.60;;;6.90;99.90;;;;;;5033326;28;20548;-72
2022/02/20 06:23:40;;;;;;;0.70;0.50;;;7.00;99.90;;;;;;5034077;28;20486;-72
2022/02/20 06:26:06;;;;;;;0.70;0.40;;;7.00;99.90;;;;;;5032071;28;20887;-71
2022/02/20 06:28:32;;;;;;;1.53;0.93;;;7.10;99.90;;;;;;5033670;28;20399;-72
2022/02/20 06:30:57;;;;;;;0.70;0.50;;;7.20;99.90;;;;;;5033312;28;20438;-71
2022/02/20 06:33:23;;;;;;;0.70;0.50;;;7.30;99.90;;;;;;5033414;28;20921;-72
2022/02/20 06:35:48;;;;;;;0.70;0.50;;;7.30;99.90;;;;;;5033318;28;20678;-71
2022/02/20 06:38:14;;;;;;;0.70;0.50;;;7.40;99.90;;;;;;5033192;28;20179;-71
2022/02/20 06:40:40;;;;;;;0.70;0.50;;;7.50;99.90;;;;;;5033163;28;20199;-72
2022/02/20 06:43:05;;;;;;;0.70;0.60;;;7.50;99.90;;;;;;5033101;28;20603;-70
2022/02/20 06:45:31;;;;;;;0.70;0.60;;;7.60;99.90;;;;;;5033006;28;20193;-70
2022/02/20 06:47:56;;;;;;;0.70;0.50;;;7.60;99.90;;;;;;5032925;28;20301;-70
2022/02/20 06:50:22;;;;;;;0.70;0.40;;;7.70;99.90;;;;;;5033108;28;20221;-68
2022/02/20 06:52:47;;;;;;;0.70;0.50;;;7.70;99.90;;;;;;5033069;28;20167;-69
2022/02/20 06:55:13;;;;;;;0.73;0.60;;;7.80;99.90;;;;;;5032443;28;20191;-68
2022/02/20 06:57:42;;;;;;;0.70;0.50;;;7.90;99.90;;;;;;5032511;28;20168;-70
2022/02/20 07:00:10;;;;;;;0.70;0.40;;;7.90;99.90;;;;;;5032778;28;20278;-71
2022/02/20 07:02:37;;;;;;;0.70;0.50;;;8.00;99.90;;;;;;5031686;28;20744;-72
2022/02/20 07:05:04;;;;;;;0.70;0.50;;;8.10;99.90;;;;;;5031627;28;20445;-72
2022/02/20 07:07:30;;;;;;;0.70;0.50;;;8.20;99.90;;;;;;5032393;28;20818;-72
2022/02/20 07:09:55;;;;;;;0.70;0.50;;;8.30;99.90;;;;;;5032771;28;20429;-71
2022/02/20 07:12:21;;;;;;;0.70;0.50;;;8.30;99.90;;;;;;5032985;28;20712;-72
2022/02/20 07:14:47;;;;;;;0.70;0.50;;;8.40;99.90;;;;;;5033107;28;20548;-72
2022/02/20 07:17:12;;;;;;;0.93;0.53;;;8.50;99.90;;;;;;5032932;28;20164;-70
2022/02/20 07:19:38;;;;;;;0.97;0.97;;;8.60;99.90;;;;;;5031988;28;20195;-71
2022/02/20 07:22:03;;;;;;;0.70;0.50;;;8.70;99.90;;;;;;5033010;28;20252;-72
2022/02/20 07:24:29;;;;;;;0.70;0.50;;;8.70;99.90;;;;;;5033273;28;20195;-72
2022/02/20 07:26:55;;;;;;;0.70;0.50;;;8.80;99.90;;;;;;5031992;28;20167;-71
2022/02/20 07:29:21;;;;;;;0.80;0.80;;;8.90;99.90;;;;;;5032283;28;20217;-72
2022/02/20 07:31:46;;;;;;;0.70;0.50;;;8.90;99.90;;;;;;5031825;28;20943;-71
2022/02/20 07:34:12;;;;;;;0.70;0.50;;;8.90;99.90;;;;;;5033089;28;20171;-72
2022/02/20 07:36:41;;;;;;;0.70;0.70;;;8.90;99.90;;;;;;5032577;28;20243;-71
2022/02/20 07:39:08;;;;;;;0.83;0.70;;;9.00;99.90;;;;;;5032791;28;20163;-72
2022/02/20 07:41:34;;;;;;;0.70;0.50;;;9.00;99.90;;;;;;5031212;28;20957;-71
2022/02/20 07:43:59;;;;;;;0.70;0.50;;;9.10;99.90;;;;;;5031867;28;20414;-71
2022/02/20 07:46:25;;;;;;;0.70;0.50;;;9.10;99.90;;;;;;5032184;28;20182;-70
2022/02/20 07:48:53;;;;;;;0.70;0.50;;;9.10;99.90;;;;;;5032092;28;20250;-73
2022/02/20 07:51:19;;;;;;;0.70;0.50;;;9.10;99.90;;;;;;5031839;28;20202;-73
2022/02/20 07:53:45;;;;;;;0.70;0.50;;;9.10;99.90;;;;;;5031774;28;20426;-72
2022/02/20 07:56:10;;;;;;;0.70;0.50;;;9.20;99.90;;;;;;5031815;28;20669;-71
2022/02/20 07:58:37;;;;;;;0.70;0.50;;;9.20;99.90;;;;;;5031461;28;20175;-72
2022/02/20 08:01:04;;;;;;;0.70;0.50;;;9.20;99.90;;;;;;5031919;28;20862;-71
2022/02/20 08:03:30;;;;;;;0.70;0.50;;;9.30;99.90;;;;;;5031859;28;20487;-72
2022/02/20 08:05:56;;;;;;;0.70;0.50;;;9.30;99.90;;;;;;5032054;28;20410;-72
2022/02/20 08:08:21;;;;;;;0.70;0.50;;;9.40;99.90;;;;;;5031569;28;20444;-72
2022/02/20 08:10:48;;;;;;;0.70;0.50;;;9.40;99.90;;;;;;5031703;28;20677;-71
2022/02/20 08:13:13;;;;;;;0.70;0.50;;;9.40;99.90;;;;;;5031652;28;20163;-70
2022/02/20 08:15:39;;;;;;;0.70;0.50;;;9.40;99.90;;;;;;5031494;28;20426;-71
2022/02/20 08:18:04;;;;;;;0.70;0.50;;;9.50;99.90;;;;;;5031605;28;20178;-72
2022/02/20 08:20:30;;;;;;;0.70;0.50;;;9.50;99.90;;;;;;5031772;28;20203;-71
2022/02/20 08:22:56;;;;;;;0.70;0.50;;;9.60;99.90;;;;;;5030516;28;20179;-71
2022/02/20 08:25:21;;;;;;;0.70;0.50;;;9.60;99.90;;;;;;5031936;28;20405;-71
2022/02/20 08:27:47;;;;;;;0.70;0.50;;;9.60;99.90;;;;;;5031608;28;20175;-71
2022/02/20 08:30:13;;;;;;;0.70;0.50;;;9.70;99.90;;;;;;5031499;28;20263;-72
2022/02/20 08:32:38;;;;;;;0.70;0.50;;;9.70;99.90;;;;;;5031495;28;20168;-71
2022/02/20 08:35:08;;;;;;;0.70;0.50;;;9.80;99.90;;;;;;5031686;28;20178;-72
2022/02/20 08:37:35;;;;;;;0.70;0.50;;;9.80;99.90;;;;;;5031327;28;20414;-71
2022/02/20 08:40:01;;;;;;;0.80;0.70;;;9.90;99.90;;;;;;5031570;28;20445;-71
2022/02/20 08:42:27;;;;;;;0.70;0.50;;;9.90;99.90;;;;;;5031576;28;20422;-71
2022/02/20 08:44:54;;;;;;;0.70;0.50;;;9.90;99.90;;;;;;5033679;28;20903;-71
2022/02/20 08:47:19;;;;;;;0.97;0.97;;;10.00;99.90;;;;;;5034543;28;20226;-72
2022/02/20 08:49:45;;;;;;;0.70;0.50;;;10.00;99.90;;;;;;5034751;28;20505;-71
2022/02/20 08:52:11;;;;;;;0.70;0.50;;;10.10;99.90;;;;;;5035072;28;20262;-72
2022/02/20 08:54:37;;;;;;;0.70;0.50;;;10.10;99.90;;;;;;5033850;28;20187;-72
2022/02/20 08:57:07;;;;;;;0.80;0.50;;;10.20;99.90;;;;;;5034870;28;20418;-72
2022/02/20 08:59:33;;;;;;;0.70;0.50;;;10.20;99.90;;;;;;5035121;28;20445;-72
2022/02/20 09:01:58;;;;;;;0.70;0.50;;;10.30;99.90;;;;;;5035097;28;20511;-72
2022/02/20 09:04:24;;;;;;;0.70;0.50;;;10.30;99.90;;;;;;5034911;28;20187;-71
2022/02/20 09:06:51;;;;;;;0.70;0.50;;;10.40;99.90;;;;;;5035286;28;20564;-72
2022/02/20 09:09:16;;;;;;;0.70;0.50;;;10.50;99.90;;;;;;5034744;28;20206;-71
2022/02/20 09:11:43;;;;;;;0.80;0.60;;;10.60;99.90;;;;;;5034863;28;20442;-72
2022/02/20 09:14:08;;;;;;;0.70;0.50;;;10.70;99.90;;;;;;5034975;28;20170;-72
2022/02/20 09:16:34;;;;;;;1.63;1.53;;;10.80;99.90;;;;;;5034710;28;20918;-72
2022/02/20 09:19:03;;;;;;;0.70;0.50;;;10.80;99.90;;;;;;5034254;28;20175;-72
2022/02/20 09:21:30;;;;;;;0.70;0.50;;;10.90;99.90;;;;;;5033303;28;20533;-72
2022/02/20 09:23:56;;;;;;;0.70;0.50;;;11.00;99.90;;;;;;5034767;28;20798;-72
2022/02/20 09:26:22;;;;;;;0.70;0.50;;;11.00;99.90;;;;;;5034702;28;20398;-72
2022/02/20 09:28:47;;;;;;;0.70;0.50;;;11.10;99.90;;;;;;5034459;28;20406;-71
2022/02/20 09:31:13;;;;;;;0.70;0.50;;;11.20;99.90;;;;;;5034461;28;20541;-70
2022/02/20 09:33:39;;;;;;;1.03;1.03;;;11.30;99.90;;;;;;5034132;28;20606;-72
2022/02/20 09:36:07;;;;;;;0.70;0.50;;;11.30;99.90;;;;;;5035147;28;20160;-70
2022/02/20 09:38:33;;;;;;;0.70;0.50;;;11.40;99.90;;;;;;5034230;28;20467;-71
2022/02/20 09:40:59;;;;;;;0.70;0.50;;;11.50;99.90;;;;;;5034153;28;21164;-72
2022/02/20 09:43:25;;;;;;;0.70;0.50;;;11.60;99.90;;;;;;5034407;28;20401;-72
2022/02/20 09:45:53;;;;;;;0.70;0.50;;;11.60;99.90;;;;;;5034298;28;20411;-71
2022/02/20 09:48:19;;;;;;;0.70;0.50;;;11.70;99.90;;;;;;5034238;28;20171;-72
2022/02/20 09:50:45;;;;;;;0.73;0.63;;;11.80;99.90;;;;;;5034042;28;20430;-72
2022/02/20 09:53:11;;;;;;;0.70;0.50;;;11.80;99.90;;;;;;5034230;28;20568;-72
2022/02/20 09:55:37;;;;;;;0.73;0.53;;;11.80;99.90;;;;;;5033686;28;20521;-72
2022/02/20 09:58:03;;;;;;;0.70;0.50;;;11.80;99.90;;;;;;5034781;28;20422;-72
2022/02/20 10:00:28;;;;;;;2.07;1.23;;;11.80;99.90;;;;;;5051828;28;20213;-72
2022/02/20 10:02:54;;;;;;;0.70;0.50;;;11.80;99.90;;;;;;5052036;28;20699;-71
2022/02/20 10:05:21;;;;;;;0.70;0.50;;;11.80;99.90;;;;;;5033862;28;20548;-71
2022/02/20 10:07:47;;;;;;;0.70;0.50;;;11.80;99.90;;;;;;5033785;28;20266;-72
2022/02/20 10:10:20;;;;;;;0.70;0.50;;;11.70;99.90;;;;;;5034190;28;20433;-72
2022/02/20 10:12:54;;;;;;;0.70;0.50;;;11.80;99.90;;;;;;5034009;28;20433;-71
2022/02/20 10:15:39;;;;;;;0.70;0.50;;;11.80;99.90;;;;;;5033946;28;20406;-71
2022/02/20 10:18:17;;;;;;;0.90;0.90;;;11.80;99.90;;;;;;5033338;28;20429;-72
2022/02/20 10:20:44;;;;;;;0.70;0.60;;;11.80;99.90;;;;;;5034734;28;20492;-71
2022/02/20 10:23:13;;;;;;;0.70;0.50;;;11.90;99.90;;;;;;5033635;28;20804;-72
2022/02/20 10:25:39;;;;;;;0.70;0.50;;;11.90;99.90;;;;;;5034635;28;20423;-71
2022/02/20 10:28:07;;;;;;;0.80;0.80;;;12.00;99.90;;;;;;5033366;28;20398;-72
2022/02/20 10:30:33;;;;;;;0.70;0.50;;;12.00;99.90;;;;;;5032829;28;20450;-72
2022/02/20 10:33:05;;;;;;;0.70;0.50;;;12.00;99.90;;;;;;5037499;28;20869;-72
2022/02/20 10:35:36;;;;;;;0.70;0.50;;;11.90;99.90;;;;;;5053680;28;20421;-71
2022/02/20 10:38:08;;;;;;;0.70;0.50;;;12.00;99.90;;;;;;5050954;28;20759;-71
2022/02/20 10:40:35;;;;;;;0.70;0.50;;;12.10;99.90;;;;;;5034219;28;20466;-70
2022/02/20 10:43:07;;;;;;;0.70;0.50;;;12.10;99.90;;;;;;5033245;28;20399;-69
2022/02/20 10:45:38;;;;;;;0.70;0.50;;;12.20;99.90;;;;;;5033286;28;20418;-70
2022/02/20 10:48:16;;;;;;;0.70;0.50;;;12.20;99.90;;;;;;5031280;28;20428;-70
2022/02/20 10:50:42;;;;;;;0.70;0.50;;;12.20;99.90;;;;;;5052989;28;20420;-70
2022/02/20 10:53:08;;;;;;;0.70;0.50;;;12.10;99.90;;;;;;5042510;28;20429;-69
2022/02/20 10:55:42;;;;;;;1.33;1.03;;;12.10;99.90;;;;;;5031630;28;20690;-70
2022/02/20 10:58:10;;;;;;;1.37;1.27;;;12.10;99.90;;;;;;5033859;28;20436;-70
2022/02/20 11:00:44;;;;;;;0.70;0.50;;;12.10;99.90;;;;;;5051917;28;20534;-70
2022/02/20 11:03:12;;;;;;;0.70;0.50;;;12.10;99.90;;;;;;5053131;28;20433;-70
2022/02/20 11:05:39;;;;;;;0.70;0.50;;;12.10;99.90;;;;;;5052724;28;20399;-69
2022/02/20 11:08:06;;;;;;;0.70;0.53;;;12.10;99.90;;;;;;5034073;28;20445;-69
2022/02/20 11:10:32;;;;;;;0.70;0.50;;;12.10;99.90;;;;;;5032700;28;20426;-69
2022/02/20 11:12:59;;;;;;;0.70;0.50;;;12.20;99.90;;;;;;5032556;28;20861;-69
2022/02/20 11:15:26;;;;;;;0.70;0.50;;;12.20;99.90;;;;;;5032694;28;20406;-70
2022/02/20 11:17:54;;;;;;;0.70;0.60;;;12.30;99.90;;;;;;5039966;28;20426;-69
2022/02/20 11:20:21;;;;;;;0.70;0.50;;;12.30;99.90;;;;;;5032600;28;20465;-69
2022/02/20 11:22:51;;;;;;;0.70;0.50;;;12.30;99.90;;;;;;5036391;28;21011;-70
2022/02/20 11:25:18;;;;;;;1.20;0.63;;;12.30;99.90;;;;;;5041300;28;20563;-69
2022/02/20 11:27:44;;;;;;;0.70;0.50;;;12.30;99.90;;;;;;5032301;28;20475;-69
2022/02/20 11:30:11;;;;;;;0.90;0.63;;;12.40;99.90;;;;;;5033727;28;21216;-70
2022/02/20 11:32:41;;;;;;;0.70;0.50;;;12.40;99.90;;;;;;5031343;28;20434;-69
2022/02/20 11:35:09;;;;;;;0.70;0.50;;;12.40;99.90;;;;;;5045471;28;20425;-69
2022/02/20 11:37:53;;;;;;;2.37;2.20;;;12.40;99.90;;;;;;5042666;28;20508;-69
2022/02/20 11:40:20;;;;;;;0.70;0.50;;;12.40;99.90;;;;;;5052435;28;20456;-68
2022/02/20 11:42:58;;;;;;;0.70;0.50;;;12.40;99.90;;;;;;5052465;28;21001;-69
2022/02/20 11:45:24;;;;;;;0.90;0.60;;;12.40;99.90;;;;;;5052666;28;20874;-70
2022/02/20 11:48:07;;;;;;;0.70;0.60;;;12.50;99.90;;;;;;5042878;28;20427;-70
2022/02/20 11:50:43;;;;;;;0.70;0.50;;;12.60;99.90;;;;;;5013114;28;20933;-68
2022/02/20 11:53:10;;;;;;;0.70;0.50;;;12.50;99.90;;;;;;5025778;28;20787;-68
2022/02/20 11:55:40;;;;;;;0.70;0.50;;;12.60;99.90;;;;;;5012763;28;20492;-69
2022/02/20 11:58:11;;;;;;;0.70;0.50;;;12.70;99.90;;;;;;5012077;28;20399;-69
2022/02/20 12:01:02;;;;;;;0.70;0.50;;;12.70;99.90;;;;;;5012309;28;20451;-69
2022/02/20 12:03:40;;;;;;;0.70;0.50;;;12.90;99.90;;;;;;5031296;28;20930;-70
2022/02/20 12:06:17;;;;;;;2.07;0.60;;;12.90;99.90;;;;;;5045029;28;20941;-70
2022/02/20 12:08:50;;;;;;;0.70;0.50;;;12.90;99.90;;;;;;5049595;28;20432;-70
2022/02/20 12:11:25;;;;;;;0.70;0.50;;;13.00;99.90;;;;;;5032310;28;20445;-69
2022/02/20 12:14:00;;;;;;;0.70;0.50;;;12.90;99.90;;;;;;5032261;28;20429;-70
2022/02/20 12:16:27;;;;;;;0.70;0.50;;;13.00;99.90;;;;;;5040322;28;20448;-69
2022/02/20 12:19:08;;;;;;;0.80;0.50;;;12.90;99.90;;;;;;5044594;28;20414;-70
2022/02/20 12:21:49;;;;;;;3.23;1.20;;;12.90;99.90;;;;;;5036220;28;20532;-70
2022/02/20 12:24:17;;;;;;;2.40;2.10;;;12.90;99.90;;;;;;5035758;28;20417;-69
2022/02/20 12:26:55;;;;;;;0.70;0.50;;;12.90;99.90;;;;;;5029944;28;20430;-69
2022/02/20 12:29:38;;;;;;;0.80;0.80;;;12.90;99.90;;;;;;5035954;28;20477;-69
2022/02/20 12:32:11;;;;;;;0.70;0.50;;;12.90;99.90;;;;;;5033175;28;20495;-69
2022/02/20 12:34:55;;;;;;;0.70;0.50;;;12.90;99.90;;;;;;5036213;28;20415;-69
2022/02/20 12:37:36;;;;;;;0.70;0.50;;;12.90;99.90;;;;;;5035866;28;20986;-67
2022/02/20 12:40:06;;;;;;;0.80;0.63;;;12.80;99.90;;;;;;5038264;28;20540;-69
2022/02/20 12:42:40;;;;;;;0.70;0.50;;;12.80;99.90;;;;;;5023513;28;20475;-68
2022/02/20 12:45:18;;;;;;;1.90;0.70;;;12.70;99.90;;;;;;5025168;28;20422;-69
2022/02/20 12:47:47;;;;;;;0.70;0.60;;;12.70;99.90;;;;;;5054928;28;20795;-68
2022/02/20 12:50:14;;;;;;;0.70;0.50;;;12.60;99.90;;;;;;5053695;28;20433;-69
2022/02/20 12:52:40;;;;;;;0.70;0.50;;;12.60;99.90;;;;;;5041150;28;20450;-70